Aldea Apeleg, Argentina
Current Conditions -  °F | °C
As of 12:00 PM on Saturday 25 Oct 2014 (Local Time) from SCBA Reporting Station
Clear Clear  
Wind Chill: 59°   Ceiling: Unl
Heat Index: 59°   Visibility: 6mi
Dew Point: 37°   Wind: 28mph
Humidity: 45%   Direction: 310°NW
Pressure: 29.77"   Gusts: 39mph
Location:  44.86°S, 70.84°W
Report Text: SCBA 251500Z 31024G34KT CAVOK 15/03 Q1008
Loading
Personal Weather Stations






























Interactive Weather Map
Tropical Storm Tracking
New forecast layout! Learn more

10-Day Weather Forecast

Advertisements
Track Severe Weather on mobile